createdAt,value
2023-01-06T00:01:16.466Z,55.47
2023-01-06T00:03:43.908Z,54.88
2023-01-06T00:06:12.797Z,54.68
2023-01-06T00:08:40.726Z,55.09
2023-01-06T00:11:12.588Z,55.19
2023-01-06T00:13:40.516Z,54.08
2023-01-06T00:16:12.905Z,53.97
2023-01-06T00:18:40.203Z,53.99
2023-01-06T00:21:08.660Z,53.49
2023-01-06T00:23:36.467Z,53.72
2023-01-06T00:26:05.243Z,53.70
2023-01-06T00:28:34.606Z,54.03
2023-01-06T00:31:10.541Z,54.09
2023-01-06T00:33:39.609Z,53.89
2023-01-06T00:36:10.200Z,53.38
2023-01-06T00:38:38.044Z,53.91
2023-01-06T00:41:27.039Z,53.85
2023-01-06T00:43:56.562Z,53.79
2023-01-06T00:46:25.612Z,53.07
2023-01-06T00:49:04.312Z,53.01
2023-01-06T00:51:35.378Z,52.86
2023-01-06T00:54:02.801Z,52.82
2023-01-06T00:56:29.858Z,52.97
2023-01-06T00:58:56.869Z,52.57
2023-01-06T01:01:24.874Z,52.67
2023-01-06T01:03:51.877Z,52.57
2023-01-06T01:06:18.883Z,52.78
2023-01-06T01:08:46.046Z,52.48
2023-01-06T01:11:36.646Z,52.39
2023-01-06T01:14:03.857Z,52.40
2023-01-06T01:16:31.793Z,52.46
2023-01-06T01:18:59.544Z,52.70
2023-01-06T01:21:26.604Z,52.42
2023-01-06T01:23:53.661Z,52.52
2023-01-06T01:26:20.681Z,52.20
2023-01-06T01:28:47.879Z,52.29
2023-01-06T01:31:16.393Z,52.42
2023-01-06T01:33:43.608Z,52.27
2023-01-06T01:36:14.611Z,52.28
2023-01-06T01:38:41.960Z,52.06
2023-01-06T01:41:14.146Z,52.28
2023-01-06T01:43:47.060Z,52.33
2023-01-06T01:46:18.736Z,52.24
2023-01-06T01:48:46.263Z,51.95
2023-01-06T01:51:17.763Z,51.87
2023-01-06T01:53:49.846Z,51.59
2023-01-06T01:56:21.523Z,51.44
2023-01-06T01:58:55.819Z,51.71
2023-01-06T02:01:23.614Z,51.89
2023-01-06T02:03:51.920Z,51.77
2023-01-06T02:06:20.921Z,51.96
2023-01-06T02:08:58.263Z,51.86
2023-01-06T02:11:27.459Z,52.30
2023-01-06T02:14:10.631Z,52.26
2023-01-06T02:16:55.943Z,52.45
2023-01-06T02:19:41.740Z,52.68
2023-01-06T02:22:24.261Z,52.71
2023-01-06T02:24:59.726Z,53.25
2023-01-06T02:27:26.939Z,53.21
2023-01-06T02:30:24.922Z,53.34
2023-01-06T02:33:04.998Z,53.63
2023-01-06T02:35:44.407Z,54.00
2023-01-06T02:38:28.640Z,53.61
2023-01-06T02:41:27.898Z,53.82
2023-01-06T02:44:16.605Z,53.83
2023-01-06T02:46:55.791Z,53.73
2023-01-06T02:49:51.379Z,53.67
2023-01-06T02:52:37.690Z,53.65
2023-01-06T02:55:17.621Z,53.53
2023-01-06T02:57:57.901Z,53.43
2023-01-06T03:00:40.943Z,53.01
2023-01-06T03:03:13.539Z,53.17
2023-01-06T03:05:44.665Z,53.11
2023-01-06T03:08:24.328Z,53.24
2023-01-06T03:10:53.465Z,53.25
2023-01-06T03:13:42.080Z,52.92
2023-01-06T03:16:09.733Z,53.12
2023-01-06T03:18:38.405Z,53.03
2023-01-06T03:21:11.561Z,52.80
2023-01-06T03:23:40.680Z,52.32
2023-01-06T03:26:08.321Z,52.47
2023-01-06T03:28:35.781Z,52.43
2023-01-06T03:31:23.007Z,52.41
2023-01-06T03:34:28.541Z,52.32
2023-01-06T03:37:01.340Z,52.10
2023-01-06T03:39:36.201Z,52.13
2023-01-06T03:42:45.448Z,52.06
2023-01-06T03:45:32.945Z,51.98
2023-01-06T03:48:24.662Z,52.12
2023-01-06T03:51:06.001Z,52.37
2023-01-06T03:54:00.699Z,52.71
2023-01-06T03:56:33.662Z,52.06
2023-01-06T03:59:07.782Z,52.22
2023-01-06T04:01:35.443Z,52.49
2023-01-06T04:04:03.463Z,52.63
2023-01-06T04:06:31.282Z,52.82
2023-01-06T04:09:00.800Z,52.82
2023-01-06T04:11:46.487Z,53.06
2023-01-06T04:14:14.070Z,53.22
2023-01-06T04:16:41.309Z,53.02
2023-01-06T04:19:09.240Z,53.61
2023-01-06T04:21:37.215Z,53.42
2023-01-06T04:24:04.839Z,53.43
2023-01-06T04:26:34.182Z,53.64
2023-01-06T04:29:02.939Z,54.00
2023-01-06T04:31:30.834Z,54.02
2023-01-06T04:33:59.820Z,54.36
2023-01-06T04:36:26.881Z,54.08
2023-01-06T04:38:55.963Z,54.19
2023-01-06T04:41:23.039Z,54.43
2023-01-06T04:43:50.201Z,54.63
2023-01-06T04:46:17.154Z,54.80
2023-01-06T04:48:44.259Z,55.04
2023-01-06T04:51:11.903Z,55.01
2023-01-06T04:53:41.029Z,54.09
2023-01-06T04:56:10.701Z,53.99
2023-01-06T04:58:38.479Z,54.16
2023-01-06T05:01:09.122Z,54.33
2023-01-06T05:03:36.564Z,54.50
2023-01-06T05:06:11.900Z,54.70
2023-01-06T05:08:40.578Z,54.85
2023-01-06T05:11:10.745Z,54.81
2023-01-06T05:13:38.225Z,54.76
2023-01-06T05:16:10.766Z,55.24
2023-01-06T05:18:37.893Z,55.41
2023-01-06T05:21:05.262Z,55.05
2023-01-06T05:23:32.301Z,55.05
2023-01-06T05:25:59.283Z,55.17
2023-01-06T05:28:26.312Z,55.21
2023-01-06T05:30:54.153Z,55.92
2023-01-06T05:33:21.233Z,55.58
2023-01-06T05:35:48.137Z,55.61
2023-01-06T05:38:15.054Z,56.09
2023-01-06T05:40:42.073Z,55.58
2023-01-06T05:43:08.956Z,55.75
2023-01-06T05:45:37.237Z,55.95
2023-01-06T05:48:04.303Z,56.02
2023-01-06T05:50:31.195Z,56.36
2023-01-06T05:52:59.985Z,56.73
2023-01-06T05:55:27.093Z,56.59
2023-01-06T05:57:54.033Z,56.37
2023-01-06T06:00:21.000Z,56.48
2023-01-06T06:02:48.013Z,56.72
2023-01-06T06:05:15.011Z,56.44
2023-01-06T06:07:42.213Z,57.01
2023-01-06T06:10:09.731Z,56.86
2023-01-06T06:12:36.962Z,56.56
2023-01-06T06:15:04.179Z,56.44
2023-01-06T06:17:31.535Z,57.40
2023-01-06T06:19:58.475Z,57.54
2023-01-06T06:22:25.394Z,58.02
2023-01-06T06:24:52.395Z,58.26
2023-01-06T06:27:19.314Z,58.52
2023-01-06T06:29:46.274Z,58.35
2023-01-06T06:32:13.314Z,58.71
2023-01-06T06:34:40.353Z,58.76
2023-01-06T06:37:07.263Z,58.50
2023-01-06T06:39:34.313Z,58.51
2023-01-06T06:42:01.253Z,58.59
2023-01-06T06:44:28.154Z,58.35
2023-01-06T06:46:55.116Z,58.51
2023-01-06T06:49:22.135Z,58.52
2023-01-06T06:51:49.170Z,58.36
2023-01-06T06:54:16.274Z,58.05
2023-01-06T06:56:43.221Z,58.16
2023-01-06T06:59:10.122Z,57.81
2023-01-06T07:01:37.406Z,57.53
2023-01-06T07:04:04.725Z,57.43
2023-01-06T07:06:31.962Z,57.41
2023-01-06T07:08:58.979Z,57.63
2023-01-06T07:11:25.922Z,57.12
2023-01-06T07:13:52.895Z,57.38
2023-01-06T07:16:23.348Z,57.14
2023-01-06T07:18:50.302Z,56.89
2023-01-06T07:21:17.235Z,57.31
2023-01-06T07:23:44.381Z,56.92
2023-01-06T07:26:12.050Z,56.69
2023-01-06T07:28:38.951Z,56.90
2023-01-06T07:31:05.973Z,56.51
2023-01-06T07:33:32.934Z,56.50
2023-01-06T07:35:59.844Z,56.90
2023-01-06T07:38:26.848Z,56.82
2023-01-06T07:40:54.004Z,56.88
2023-01-06T07:43:21.027Z,57.29
2023-01-06T07:45:48.966Z,57.86
2023-01-06T07:48:17.468Z,57.68
2023-01-06T07:50:45.043Z,57.27
2023-01-06T07:53:12.551Z,57.27
2023-01-06T07:55:39.583Z,56.82
2023-01-06T07:58:10.121Z,56.63
2023-01-06T08:00:37.524Z,56.79
2023-01-06T08:03:06.293Z,56.98
2023-01-06T08:05:33.571Z,57.03
2023-01-06T08:08:00.579Z,56.54
2023-01-06T08:10:27.651Z,56.52
2023-01-06T08:12:54.704Z,56.24
2023-01-06T08:15:21.718Z,56.52
2023-01-06T08:17:53.305Z,56.28
2023-01-06T08:20:20.731Z,56.18
2023-01-06T08:22:47.866Z,56.02
2023-01-06T08:25:14.852Z,55.46
2023-01-06T08:27:41.785Z,55.37
2023-01-06T08:30:09.592Z,55.16
2023-01-06T08:32:36.551Z,54.98
2023-01-06T08:35:03.530Z,55.26
2023-01-06T08:37:30.553Z,54.69
2023-01-06T08:39:57.502Z,55.06
2023-01-06T08:42:24.741Z,55.17
2023-01-06T08:44:51.730Z,55.31
2023-01-06T08:47:18.719Z,54.42
2023-01-06T08:49:45.706Z,54.63
2023-01-06T08:52:12.720Z,54.66
2023-01-06T08:54:39.661Z,54.21
2023-01-06T08:57:08.524Z,53.54
2023-01-06T08:59:35.558Z,53.83
2023-01-06T09:02:02.600Z,53.23
2023-01-06T09:04:29.676Z,53.25
2023-01-06T09:06:57.614Z,52.99
2023-01-06T09:09:24.608Z,52.85
2023-01-06T09:11:51.705Z,52.68
2023-01-06T09:14:18.683Z,52.90
2023-01-06T09:16:47.927Z,52.53
2023-01-06T09:19:16.925Z,52.06
2023-01-06T09:21:46.303Z,51.13
2023-01-06T09:24:14.586Z,50.98
2023-01-06T09:26:41.797Z,50.85
2023-01-06T09:29:09.122Z,50.52
2023-01-06T09:31:36.208Z,50.06
2023-01-06T09:34:04.240Z,50.10
2023-01-06T09:36:32.888Z,49.79
2023-01-06T09:38:59.799Z,49.83
2023-01-06T09:41:48.515Z,49.16
2023-01-06T09:44:18.041Z,48.91
2023-01-06T09:46:49.103Z,48.11
2023-01-06T09:49:52.319Z,46.91
2023-01-06T09:52:33.599Z,47.03
2023-01-06T09:55:06.031Z,47.09
2023-01-06T09:57:37.941Z,46.39
2023-01-06T10:00:12.442Z,46.30
2023-01-06T10:02:40.879Z,45.81
2023-01-06T10:05:43.079Z,45.67
2023-01-06T10:08:23.276Z,45.67
2023-01-06T10:11:12.646Z,44.76
2023-01-06T10:14:06.781Z,45.21
2023-01-06T10:16:34.265Z,44.67
2023-01-06T10:19:03.962Z,43.62
2023-01-06T10:22:06.338Z,43.03
2023-01-06T10:25:04.266Z,42.38
2023-01-06T10:27:41.333Z,42.03
2023-01-06T10:30:20.369Z,40.88
2023-01-06T10:32:49.966Z,40.12
2023-01-06T10:35:20.172Z,40.45
2023-01-06T10:37:49.638Z,40.73
2023-01-06T10:40:21.205Z,39.59
2023-01-06T10:42:55.758Z,40.08
2023-01-06T10:45:26.511Z,39.52
2023-01-06T10:47:54.242Z,38.35
2023-01-06T10:50:21.933Z,37.94
2023-01-06T10:52:50.132Z,37.45
2023-01-06T10:55:29.289Z,38.13
2023-01-06T10:58:14.183Z,37.52
2023-01-06T11:00:59.210Z,36.39
2023-01-06T11:03:35.152Z,36.67
2023-01-06T11:06:07.001Z,36.74
2023-01-06T11:08:35.725Z,37.04
2023-01-06T11:11:09.528Z,36.72
2023-01-06T11:13:40.333Z,36.61
2023-01-06T11:16:18.606Z,36.49
2023-01-06T11:18:51.903Z,37.02
2023-01-06T11:21:18.880Z,36.63
2023-01-06T11:23:48.194Z,38.13
2023-01-06T11:26:28.302Z,38.10
2023-01-06T11:28:55.797Z,38.49
2023-01-06T11:31:28.440Z,38.14
2023-01-06T11:34:02.121Z,38.35
2023-01-06T11:36:33.013Z,38.12
2023-01-06T11:39:40.878Z,38.29
2023-01-06T11:42:13.259Z,37.53
2023-01-06T11:44:43.721Z,37.09
2023-01-06T11:47:16.434Z,37.74
2023-01-06T11:49:49.312Z,38.01
2023-01-06T11:52:21.654Z,37.05
2023-01-06T11:55:09.171Z,37.20
2023-01-06T11:57:44.622Z,37.19
2023-01-06T12:00:31.800Z,37.12
2023-01-06T12:13:24.084Z,36.23
2023-01-06T12:16:01.288Z,35.51
2023-01-06T12:18:33.271Z,35.09
2023-01-06T12:21:01.725Z,34.33
2023-01-06T12:23:37.906Z,33.28
2023-01-06T12:26:13.594Z,31.86
2023-01-06T12:28:43.693Z,31.75
2023-01-06T12:31:35.650Z,30.38
2023-01-06T12:34:27.541Z,30.26
2023-01-06T12:37:13.122Z,30.35
2023-01-06T12:40:09.251Z,28.86
2023-01-06T12:42:44.266Z,28.18
2023-01-06T12:45:41.106Z,27.17
2023-01-06T12:48:48.723Z,26.02
2023-01-06T12:51:18.831Z,25.11
2023-01-06T12:53:56.377Z,25.68
2023-01-06T12:56:38.456Z,24.53
2023-01-06T12:59:05.404Z,24.28
2023-01-06T13:01:50.427Z,24.18
2023-01-06T13:04:42.757Z,23.48
2023-01-06T13:07:12.583Z,24.01
2023-01-06T13:09:58.652Z,22.88
2023-01-06T13:12:58.174Z,22.61
2023-01-06T13:15:29.971Z,21.67
2023-01-06T13:18:18.825Z,20.81
2023-01-06T13:21:05.857Z,21.13
2023-01-06T13:23:51.423Z,20.86
2023-01-06T13:26:44.607Z,20.50
2023-01-06T13:29:20.423Z,20.45
2023-01-06T13:32:21.601Z,21.00
2023-01-06T13:35:13.650Z,21.59
2023-01-06T13:37:52.127Z,22.68
2023-01-06T13:40:21.931Z,23.44
2023-01-06T13:43:13.201Z,24.84
2023-01-06T13:45:47.749Z,24.76
2023-01-06T13:48:25.901Z,25.97
2023-01-06T13:50:53.233Z,26.98
2023-01-06T13:53:33.918Z,28.09
2023-01-06T13:56:13.456Z,29.21
2023-01-06T13:58:44.299Z,30.32
2023-01-06T14:01:20.635Z,31.32
2023-01-06T14:03:49.635Z,32.09
2023-01-06T14:06:22.946Z,32.25
2023-01-06T14:08:59.481Z,33.43
2023-01-06T14:11:35.567Z,34.07
2023-01-06T14:14:06.003Z,34.42
2023-01-06T14:16:50.875Z,34.57
2023-01-06T14:19:24.169Z,34.03
2023-01-06T14:21:54.921Z,34.69
2023-01-06T14:24:31.883Z,35.58
2023-01-06T14:27:08.410Z,36.25
2023-01-06T14:29:44.251Z,35.78
2023-01-06T14:32:14.241Z,36.44
2023-01-06T14:34:50.408Z,37.10
2023-01-06T14:37:19.575Z,36.77
2023-01-06T14:39:54.080Z,37.48
2023-01-06T14:42:39.075Z,38.11
2023-01-06T14:45:23.384Z,38.82
2023-01-06T14:47:54.000Z,39.58
2023-01-06T14:50:41.920Z,39.90
2023-01-06T14:53:39.814Z,40.56
2023-01-06T14:56:07.658Z,41.39
2023-01-06T14:58:37.171Z,41.06
2023-01-06T15:01:06.691Z,41.58
2023-01-06T15:03:34.797Z,41.84
2023-01-06T15:06:21.846Z,42.01
2023-01-06T15:08:49.463Z,42.84
2023-01-06T15:11:31.211Z,43.05
2023-01-06T15:13:58.323Z,43.93
2023-01-06T15:16:42.166Z,44.38
2023-01-06T15:19:16.324Z,44.29
2023-01-06T15:21:45.662Z,44.34
2023-01-06T15:24:28.123Z,45.45
2023-01-06T15:26:57.270Z,45.14
2023-01-06T15:29:25.806Z,45.66
2023-01-06T15:31:54.299Z,45.50
2023-01-06T15:34:25.736Z,45.78
2023-01-06T15:36:55.130Z,45.99
2023-01-06T15:39:33.123Z,46.86
2023-01-06T15:42:02.530Z,46.68
2023-01-06T15:44:35.622Z,46.52
2023-01-06T15:47:11.631Z,47.04
2023-01-06T15:49:49.022Z,46.94
2023-01-06T15:52:45.368Z,47.46
2023-01-06T15:55:32.852Z,47.71
2023-01-06T15:58:21.784Z,47.79
2023-01-06T16:01:12.845Z,48.03
2023-01-06T16:03:40.406Z,47.85
2023-01-06T16:06:15.850Z,48.18
2023-01-06T16:08:43.965Z,48.14
2023-01-06T16:11:16.641Z,48.79
2023-01-06T16:13:58.233Z,48.77
2023-01-06T16:16:31.736Z,48.81
2023-01-06T16:18:58.761Z,48.55
2023-01-06T16:21:32.237Z,48.67
2023-01-06T16:24:05.013Z,48.89
2023-01-06T16:26:41.297Z,48.52
2023-01-06T16:29:36.025Z,49.02
2023-01-06T16:32:29.206Z,49.20
2023-01-06T16:35:03.095Z,49.01
2023-01-06T16:37:34.325Z,49.05
2023-01-06T16:40:01.329Z,49.12
2023-01-06T16:42:39.846Z,49.35
2023-01-06T16:45:07.220Z,49.12
2023-01-06T16:47:34.195Z,49.47
2023-01-06T16:50:22.615Z,49.58
2023-01-06T16:53:09.772Z,49.53
2023-01-06T16:55:38.271Z,49.38
2023-01-06T16:58:19.032Z,49.65
2023-01-06T17:00:54.653Z,50.00
2023-01-06T17:03:24.204Z,50.26
2023-01-06T17:05:54.320Z,50.18
2023-01-06T17:08:37.071Z,50.15
2023-01-06T17:11:25.645Z,50.28
2023-01-06T17:14:04.940Z,50.50
2023-01-06T17:16:35.182Z,50.42
2023-01-06T17:19:28.764Z,50.94
2023-01-06T17:22:13.224Z,51.09
2023-01-06T17:24:40.254Z,51.03
2023-01-06T17:27:28.317Z,51.11
2023-01-06T17:29:56.007Z,51.22
2023-01-06T17:32:35.062Z,50.91
2023-01-06T17:35:03.008Z,51.17
2023-01-06T17:37:30.336Z,51.10
2023-01-06T17:39:58.297Z,51.27
2023-01-06T17:42:32.631Z,51.26
2023-01-06T17:45:01.151Z,51.50
2023-01-06T17:47:45.929Z,51.52
2023-01-06T17:50:31.517Z,51.82
2023-01-06T17:53:48.263Z,51.70
2023-01-06T17:56:15.546Z,52.02
2023-01-06T17:58:44.367Z,51.81
2023-01-06T18:01:22.693Z,52.20
2023-01-06T18:03:51.128Z,52.19
2023-01-06T18:06:20.095Z,52.05
2023-01-06T18:08:49.176Z,52.40
2023-01-06T18:11:24.016Z,52.80
2023-01-06T18:13:51.956Z,52.76
2023-01-06T18:16:33.520Z,53.09
2023-01-06T18:19:23.727Z,53.07
2023-01-06T18:21:51.004Z,52.90
2023-01-06T18:24:22.980Z,52.99
2023-01-06T18:26:55.256Z,53.31
2023-01-06T18:29:31.346Z,53.95
2023-01-06T18:32:19.134Z,53.83
2023-01-06T18:34:47.235Z,53.55
2023-01-06T18:37:14.494Z,53.71
2023-01-06T18:39:47.564Z,53.25
2023-01-06T18:42:19.793Z,53.45
2023-01-06T18:44:47.655Z,53.78
2023-01-06T18:47:23.590Z,53.77
2023-01-06T18:49:56.183Z,53.87
2023-01-06T18:52:44.553Z,54.16
2023-01-06T18:55:19.475Z,54.25
2023-01-06T18:57:54.966Z,54.29
2023-01-06T19:00:37.251Z,54.91
2023-01-06T19:03:19.493Z,54.78
2023-01-06T19:05:47.685Z,54.71
2023-01-06T19:08:35.055Z,54.87
2023-01-06T19:11:03.784Z,54.58
2023-01-06T19:13:30.869Z,55.13
2023-01-06T19:16:07.301Z,55.61
2023-01-06T19:18:34.463Z,55.56
2023-01-06T19:21:03.832Z,55.52
2023-01-06T19:23:32.659Z,55.72
2023-01-06T19:26:31.774Z,55.98
2023-01-06T19:29:02.239Z,56.00
2023-01-06T19:31:30.875Z,55.62
2023-01-06T19:34:00.946Z,57.32
2023-01-06T19:36:39.805Z,58.04
2023-01-06T19:39:36.740Z,57.10
2023-01-06T19:42:22.976Z,56.38
2023-01-06T19:44:54.510Z,56.70
2023-01-06T19:47:29.367Z,55.96
2023-01-06T19:50:00.240Z,56.59
2023-01-06T19:52:35.785Z,56.51
2023-01-06T19:55:18.533Z,56.47
2023-01-06T19:57:55.351Z,57.29
2023-01-06T20:00:27.126Z,56.99
2023-01-06T20:02:59.451Z,57.27
2023-01-06T20:05:27.836Z,57.04
2023-01-06T20:07:54.865Z,57.30
2023-01-06T20:10:22.010Z,57.51
2023-01-06T20:12:49.518Z,57.65
2023-01-06T20:15:16.737Z,57.49
2023-01-06T20:17:43.829Z,57.53
2023-01-06T20:20:11.666Z,57.54
2023-01-06T20:22:38.697Z,57.32
2023-01-06T20:25:06.134Z,57.45
2023-01-06T20:27:33.800Z,57.14
2023-01-06T20:30:00.772Z,57.02
2023-01-06T20:32:27.806Z,57.29
2023-01-06T20:34:54.808Z,57.17
2023-01-06T20:37:21.763Z,57.22
2023-01-06T20:39:48.983Z,57.25
2023-01-06T20:42:15.917Z,58.08
2023-01-06T20:44:42.966Z,57.21
2023-01-06T20:47:10.081Z,57.28
2023-01-06T20:49:39.017Z,57.14
2023-01-06T20:52:06.236Z,57.27
2023-01-06T20:54:33.307Z,56.94
2023-01-06T20:57:00.194Z,56.84
2023-01-06T20:59:27.374Z,56.97
2023-01-06T21:01:54.746Z,56.79
2023-01-06T21:04:21.794Z,57.30
2023-01-06T21:06:48.814Z,57.32
2023-01-06T21:09:15.896Z,57.47
2023-01-06T21:11:42.802Z,57.48
2023-01-06T21:14:09.743Z,57.36
2023-01-06T21:16:37.027Z,57.26
2023-01-06T21:19:03.969Z,57.56
2023-01-06T21:21:30.968Z,56.86
2023-01-06T21:24:00.545Z,56.13
2023-01-06T21:26:27.534Z,55.99
2023-01-06T21:28:54.604Z,56.37
2023-01-06T21:31:22.045Z,56.58
2023-01-06T21:33:49.391Z,57.00
2023-01-06T21:36:16.387Z,57.64
2023-01-06T21:38:43.495Z,57.40
2023-01-06T21:41:29.241Z,57.42
2023-01-06T21:43:56.258Z,57.77
2023-01-06T21:46:23.260Z,57.69
2023-01-06T21:48:50.221Z,57.92
2023-01-06T21:51:17.434Z,57.62
2023-01-06T21:53:45.015Z,57.85
2023-01-06T21:56:12.033Z,57.71
2023-01-06T21:58:39.091Z,57.77
2023-01-06T22:01:06.717Z,57.84
2023-01-06T22:03:33.835Z,57.86
2023-01-06T22:06:02.777Z,57.42
2023-01-06T22:08:31.274Z,57.26
2023-01-06T22:10:58.892Z,57.70
2023-01-06T22:13:26.324Z,58.02
2023-01-06T22:15:53.464Z,58.72
2023-01-06T22:18:20.580Z,58.59
2023-01-06T22:20:47.695Z,58.55
2023-01-06T22:23:19.277Z,58.94
2023-01-06T22:25:46.354Z,58.44
2023-01-06T22:28:13.296Z,58.00
2023-01-06T22:30:40.277Z,57.81
2023-01-06T22:33:07.342Z,57.95
2023-01-06T22:35:34.334Z,58.41
2023-01-06T22:38:01.602Z,57.95
2023-01-06T22:40:28.862Z,58.47
2023-01-06T22:42:57.107Z,58.63
2023-01-06T22:45:23.993Z,58.73
2023-01-06T22:47:50.939Z,58.59
2023-01-06T22:50:17.963Z,58.41
2023-01-06T22:52:44.963Z,58.49
2023-01-06T22:55:12.012Z,58.50
2023-01-06T22:57:39.412Z,58.38
2023-01-06T23:00:12.264Z,58.96
2023-01-06T23:02:39.351Z,58.42
2023-01-06T23:05:06.909Z,58.46
2023-01-06T23:07:42.226Z,58.15
2023-01-06T23:10:10.635Z,58.61
2023-01-06T23:12:39.080Z,58.59
2023-01-06T23:15:06.502Z,58.67
2023-01-06T23:17:33.511Z,58.68
2023-01-06T23:20:00.584Z,58.77
2023-01-06T23:22:27.525Z,58.75
2023-01-06T23:24:54.494Z,58.59
2023-01-06T23:27:21.472Z,58.72
2023-01-06T23:29:48.427Z,58.86
2023-01-06T23:32:15.495Z,58.29
2023-01-06T23:34:42.451Z,58.27
2023-01-06T23:37:09.411Z,58.08
2023-01-06T23:39:36.414Z,58.50
2023-01-06T23:42:04.511Z,58.51
2023-01-06T23:44:31.453Z,58.65
2023-01-06T23:46:58.510Z,58.42
2023-01-06T23:49:25.474Z,58.36
2023-01-06T23:51:52.374Z,58.79
2023-01-06T23:54:19.363Z,58.74
2023-01-06T23:56:46.775Z,58.37
2023-01-06T23:59:14.375Z,58.13
